Terminal Aerodrome Forecast
Issued by NWS

Home | Current Version | Previous Version | Graphics & Text | Print | Product List | Glossary On
Versions: 1 2 3 4 5 6 7 8 9 10 11 12 13 14 15 16 17 18 19 20
631
FTUS43 KUNR 230257 AAA
TAFGCC
TAF AMD
KGCC 230257Z 2303/2324 03011KT P6SM OVC015
     FM231200 04014KT 2SM -SN OVC010
     FM231500 04018KT 1/2SM SN OVC010
      AMD NOT SKED=

USA.gov is the U.S. government's official web portal to all federal, state and local government web resources and services.